AXM6412 WMKK-WMKP
Flight info
| Callsign | AXM6412 |
|---|---|
| Flight time | 0h 34m |
| Altitude | 24000 |
| Route | ATIMU1E ATIMU Y506 TEPUS DCT GORVU |
| Aircraft | A343/H-SDE2E3FGHIJ4J5M1RWXY/LB1D1 |
Departure
| Time | 2026-04-22 13:46 |
|---|---|
| Airport | Kuala Lumpur International Airport (WMKK) |
Arrival
| Time | 2026-04-22 14:20 |
|---|---|
| Airport | Penang International Airport (WMKP) |
| Time | Latitude | Longitude | Altitude | Speed | Heading |
|---|---|---|---|---|---|
| 2026-04-22 13:15 | 2.73759 | 101.68717 | 46 ft | 0 kts | 326° |
| 2026-04-22 13:30 | 2.73758 | 101.68717 | 46 ft | 1 kts | 326° |
| 2026-04-22 13:31 | 2.73744 | 101.68727 | 45 ft | 3 kts | 327° |
| 2026-04-22 13:31 | 2.73727 | 101.68738 | 43 ft | 3 kts | 327° |
| 2026-04-22 13:31 | 2.73710 | 101.68749 | 43 ft | 3 kts | 323° |
| 2026-04-22 13:31 | 2.73695 | 101.68762 | 43 ft | 3 kts | 307° |
| 2026-04-22 13:32 | 2.73687 | 101.68776 | 44 ft | 3 kts | 258° |
| 2026-04-22 13:32 | 2.73691 | 101.68786 | 41 ft | 2 kts | 236° |
| 2026-04-22 13:32 | 2.73702 | 101.68801 | 43 ft | 2 kts | 236° |
| 2026-04-22 13:32 | 2.73703 | 101.68804 | 46 ft | 0 kts | 236° |
| 2026-04-22 13:36 | 2.73696 | 101.68793 | 41 ft | 7 kts | 236° |
| 2026-04-22 13:36 | 2.73664 | 101.68745 | 45 ft | 9 kts | 236° |
| 2026-04-22 13:36 | 2.73618 | 101.68677 | 46 ft | 15 kts | 236° |
| 2026-04-22 13:36 | 2.73553 | 101.68576 | 46 ft | 20 kts | 237° |
| 2026-04-22 13:37 | 2.73473 | 101.68451 | 46 ft | 20 kts | 237° |
| 2026-04-22 13:37 | 2.73393 | 101.68328 | 44 ft | 19 kts | 237° |
| 2026-04-22 13:37 | 2.73295 | 101.68310 | 42 ft | 16 kts | 144° |
| 2026-04-22 13:37 | 2.73198 | 101.68377 | 42 ft | 18 kts | 147° |
| 2026-04-22 13:38 | 2.73093 | 101.68447 | 43 ft | 19 kts | 146° |
| 2026-04-22 13:38 | 2.72860 | 101.68605 | 43 ft | 22 kts | 146° |
| 2026-04-22 13:38 | 2.72731 | 101.68692 | 43 ft | 23 kts | 146° |
| 2026-04-22 13:39 | 2.72596 | 101.68785 | 42 ft | 24 kts | 146° |
| 2026-04-22 13:39 | 2.72452 | 101.68878 | 42 ft | 25 kts | 147° |
| 2026-04-22 13:39 | 2.72304 | 101.68976 | 43 ft | 26 kts | 145° |
| 2026-04-22 13:39 | 2.72156 | 101.69079 | 43 ft | 26 kts | 145° |
| 2026-04-22 13:40 | 2.72004 | 101.69186 | 43 ft | 27 kts | 146° |
| 2026-04-22 13:40 | 2.71845 | 101.69289 | 44 ft | 28 kts | 147° |
| 2026-04-22 13:40 | 2.71682 | 101.69396 | 43 ft | 28 kts | 146° |
| 2026-04-22 13:40 | 2.71516 | 101.69508 | 43 ft | 29 kts | 146° |
| 2026-04-22 13:41 | 2.71346 | 101.69624 | 43 ft | 30 kts | 146° |
| 2026-04-22 13:41 | 2.71173 | 101.69741 | 43 ft | 30 kts | 146° |
| 2026-04-22 13:41 | 2.71024 | 101.69843 | 43 ft | 15 kts | 146° |
| 2026-04-22 13:41 | 2.70937 | 101.69854 | 44 ft | 8 kts | 213° |
| 2026-04-22 13:42 | 2.70926 | 101.69838 | 44 ft | 0 kts | 234° |
| 2026-04-22 13:43 | 2.70919 | 101.69828 | 44 ft | 6 kts | 234° |
| 2026-04-22 13:43 | 2.70872 | 101.69745 | 43 ft | 14 kts | 259° |
| 2026-04-22 13:43 | 2.70892 | 101.69718 | 43 ft | 10 kts | 322° |
| 2026-04-22 13:43 | 2.70910 | 101.69707 | 43 ft | 0 kts | 329° |
| 2026-04-22 13:44 | 2.70918 | 101.69701 | 42 ft | 3 kts | 327° |
| 2026-04-22 13:44 | 2.70944 | 101.69684 | 42 ft | 6 kts | 327° |
| 2026-04-22 13:44 | 2.70982 | 101.69660 | 42 ft | 0 kts | 327° |
| 2026-04-22 13:44 | 2.70989 | 101.69655 | 42 ft | 3 kts | 327° |
| 2026-04-22 13:45 | 2.71132 | 101.69558 | 42 ft | 58 kts | 325° |
| 2026-04-22 13:45 | 2.71653 | 101.69201 | 44 ft | 121 kts | 326° |
| 2026-04-22 13:45 | 2.72498 | 101.68631 | 45 ft | 170 kts | 326° |
| 2026-04-22 13:45 | 2.73556 | 101.67912 | 389 ft | 192 kts | 326° |
| 2026-04-22 13:46 | 2.74693 | 101.67168 | 967 ft | 197 kts | 327° |
| 2026-04-22 13:46 | 2.75870 | 101.66395 | 1537 ft | 214 kts | 327° |
| 2026-04-22 13:46 | 2.77199 | 101.65522 | 1838 ft | 246 kts | 327° |
| 2026-04-22 13:46 | 2.78753 | 101.64661 | 2438 ft | 262 kts | 343° |
| 2026-04-22 13:47 | 2.80572 | 101.64365 | 3243 ft | 269 kts | 358° |
| 2026-04-22 13:47 | 2.82449 | 101.64294 | 3749 ft | 271 kts | 360° |
| 2026-04-22 13:47 | 2.84335 | 101.64258 | 4071 ft | 272 kts | 0° |
| 2026-04-22 13:47 | 2.86231 | 101.64226 | 4393 ft | 273 kts | 360° |
| 2026-04-22 13:48 | 2.88132 | 101.64196 | 4709 ft | 274 kts | 360° |
| 2026-04-22 13:48 | 2.90044 | 101.64169 | 4956 ft | 275 kts | 0° |
| 2026-04-22 13:48 | 2.91961 | 101.64140 | 4992 ft | 275 kts | 0° |
| 2026-04-22 13:48 | 2.93872 | 101.64081 | 4994 ft | 275 kts | 355° |
| 2026-04-22 13:49 | 2.95733 | 101.63646 | 5143 ft | 277 kts | 338° |
| 2026-04-22 13:49 | 2.97352 | 101.62634 | 5802 ft | 281 kts | 322° |
| 2026-04-22 13:49 | 2.98841 | 101.61373 | 6819 ft | 280 kts | 320° |
| 2026-04-22 13:49 | 3.00300 | 101.60074 | 7810 ft | 282 kts | 319° |
| 2026-04-22 13:50 | 3.01766 | 101.58743 | 8743 ft | 287 kts | 318° |
| 2026-04-22 13:50 | 3.03241 | 101.57388 | 9711 ft | 290 kts | 317° |
| 2026-04-22 13:50 | 3.04743 | 101.56003 | 10454 ft | 300 kts | 317° |
| 2026-04-22 13:50 | 3.06330 | 101.54535 | 10828 ft | 322 kts | 317° |
| 2026-04-22 13:51 | 3.08027 | 101.52963 | 11174 ft | 342 kts | 317° |
| 2026-04-22 13:51 | 3.09799 | 101.51321 | 11752 ft | 351 kts | 317° |
| 2026-04-22 13:51 | 3.11604 | 101.49649 | 12478 ft | 356 kts | 317° |
| 2026-04-22 13:51 | 3.13438 | 101.47951 | 13189 ft | 361 kts | 317° |
| 2026-04-22 13:52 | 3.15292 | 101.46233 | 13868 ft | 366 kts | 317° |
| 2026-04-22 13:52 | 3.17170 | 101.44493 | 14494 ft | 370 kts | 317° |
| 2026-04-22 13:52 | 3.19070 | 101.42732 | 15133 ft | 374 kts | 317° |
| 2026-04-22 13:52 | 3.20988 | 101.40955 | 15778 ft | 378 kts | 317° |
| 2026-04-22 13:53 | 3.22903 | 101.39181 | 16406 ft | 382 kts | 317° |
| 2026-04-22 13:53 | 3.24863 | 101.37364 | 17062 ft | 386 kts | 317° |
| 2026-04-22 13:53 | 3.26842 | 101.35530 | 17741 ft | 390 kts | 317° |
| 2026-04-22 13:53 | 3.28846 | 101.33672 | 18355 ft | 395 kts | 317° |
| 2026-04-22 13:54 | 3.30872 | 101.31793 | 18901 ft | 400 kts | 317° |
| 2026-04-22 13:54 | 3.32921 | 101.29891 | 19467 ft | 404 kts | 317° |
| 2026-04-22 13:54 | 3.34993 | 101.27969 | 20037 ft | 408 kts | 317° |
| 2026-04-22 13:54 | 3.37082 | 101.26031 | 20600 ft | 412 kts | 317° |
| 2026-04-22 13:55 | 3.39199 | 101.24067 | 21110 ft | 417 kts | 317° |
| 2026-04-22 13:55 | 3.41337 | 101.22085 | 21638 ft | 422 kts | 317° |
| 2026-04-22 13:55 | 3.43500 | 101.20078 | 22197 ft | 425 kts | 317° |
| 2026-04-22 13:55 | 3.45679 | 101.18058 | 22748 ft | 429 kts | 317° |
| 2026-04-22 13:56 | 3.47876 | 101.16020 | 23271 ft | 432 kts | 317° |
| 2026-04-22 13:56 | 3.50074 | 101.13981 | 23667 ft | 436 kts | 317° |
| 2026-04-22 13:56 | 3.52303 | 101.11912 | 23799 ft | 441 kts | 317° |
| 2026-04-22 13:56 | 3.54593 | 101.09788 | 23819 ft | 455 kts | 317° |
| 2026-04-22 13:57 | 3.56929 | 101.07620 | 23823 ft | 460 kts | 317° |
| 2026-04-22 13:57 | 3.59307 | 101.05413 | 23827 ft | 460 kts | 317° |
| 2026-04-22 13:57 | 3.61652 | 101.03237 | 23825 ft | 460 kts | 317° |
| 2026-04-22 13:57 | 3.63970 | 101.01086 | 23829 ft | 460 kts | 317° |
| 2026-04-22 13:58 | 3.66371 | 100.98964 | 23828 ft | 460 kts | 322° |
| 2026-04-22 13:58 | 3.69068 | 100.97256 | 23832 ft | 459 kts | 332° |
| 2026-04-22 13:58 | 3.71918 | 100.95825 | 23829 ft | 458 kts | 335° |
| 2026-04-22 13:58 | 3.74828 | 100.94515 | 23834 ft | 458 kts | 337° |
| 2026-04-22 13:59 | 3.77759 | 100.93257 | 23828 ft | 459 kts | 338° |
| 2026-04-22 13:59 | 3.80701 | 100.92006 | 23830 ft | 460 kts | 338° |
| 2026-04-22 13:59 | 3.83639 | 100.90746 | 23830 ft | 460 kts | 337° |
| 2026-04-22 13:59 | 3.86570 | 100.89472 | 23579 ft | 457 kts | 337° |
| 2026-04-22 14:00 | 3.89474 | 100.88195 | 23012 ft | 453 kts | 336° |
| 2026-04-22 14:00 | 3.92319 | 100.86933 | 22711 ft | 441 kts | 336° |
| 2026-04-22 14:00 | 3.95094 | 100.85697 | 22329 ft | 432 kts | 336° |
| 2026-04-22 14:00 | 3.97825 | 100.84479 | 21844 ft | 427 kts | 336° |
| 2026-04-22 14:01 | 4.00520 | 100.83277 | 21349 ft | 422 kts | 336° |
| 2026-04-22 14:01 | 4.03195 | 100.82084 | 20843 ft | 418 kts | 336° |
| 2026-04-22 14:01 | 4.05843 | 100.80904 | 20344 ft | 414 kts | 336° |
| 2026-04-22 14:01 | 4.08466 | 100.79736 | 19842 ft | 411 kts | 336° |
| 2026-04-22 14:02 | 4.11064 | 100.78579 | 19361 ft | 407 kts | 336° |
| 2026-04-22 14:02 | 4.13611 | 100.77444 | 18877 ft | 404 kts | 336° |
| 2026-04-22 14:02 | 4.16171 | 100.76305 | 18398 ft | 401 kts | 336° |
| 2026-04-22 14:02 | 4.18713 | 100.75178 | 17896 ft | 398 kts | 336° |
| 2026-04-22 14:03 | 4.21242 | 100.74072 | 17379 ft | 394 kts | 336° |
| 2026-04-22 14:03 | 4.23745 | 100.72984 | 16859 ft | 390 kts | 336° |
| 2026-04-22 14:03 | 4.26221 | 100.71909 | 16471 ft | 385 kts | 336° |
| 2026-04-22 14:03 | 4.28676 | 100.70843 | 16231 ft | 385 kts | 336° |
| 2026-04-22 14:04 | 4.31127 | 100.69778 | 15986 ft | 383 kts | 336° |
| 2026-04-22 14:04 | 4.33564 | 100.68717 | 15752 ft | 381 kts | 336° |
| 2026-04-22 14:04 | 4.35969 | 100.67670 | 15519 ft | 380 kts | 336° |
| 2026-04-22 14:04 | 4.38421 | 100.66601 | 15282 ft | 379 kts | 336° |
| 2026-04-22 14:05 | 4.40829 | 100.65551 | 15051 ft | 376 kts | 336° |
| 2026-04-22 14:05 | 4.43221 | 100.64508 | 14815 ft | 374 kts | 336° |
| 2026-04-22 14:05 | 4.47976 | 100.62435 | 14365 ft | 371 kts | 336° |
| 2026-04-22 14:06 | 4.50338 | 100.61405 | 14144 ft | 370 kts | 336° |
| 2026-04-22 14:06 | 4.52662 | 100.60391 | 13922 ft | 369 kts | 336° |
| 2026-04-22 14:06 | 4.55012 | 100.59366 | 13704 ft | 367 kts | 336° |
| 2026-04-22 14:06 | 4.57351 | 100.58346 | 13460 ft | 366 kts | 336° |
| 2026-04-22 14:07 | 4.59675 | 100.57332 | 13162 ft | 360 kts | 336° |
| 2026-04-22 14:07 | 4.61967 | 100.56333 | 12702 ft | 358 kts | 336° |
| 2026-04-22 14:07 | 4.64245 | 100.55339 | 12193 ft | 356 kts | 336° |
| 2026-04-22 14:07 | 4.66513 | 100.54350 | 11689 ft | 354 kts | 337° |
| 2026-04-22 14:08 | 4.68764 | 100.53367 | 11182 ft | 353 kts | 337° |
| 2026-04-22 14:08 | 4.71010 | 100.52387 | 10693 ft | 351 kts | 337° |
| 2026-04-22 14:08 | 4.73237 | 100.51415 | 10421 ft | 343 kts | 337° |
| 2026-04-22 14:08 | 4.75378 | 100.50480 | 10317 ft | 329 kts | 337° |
| 2026-04-22 14:09 | 4.77420 | 100.49588 | 10190 ft | 309 kts | 337° |
| 2026-04-22 14:09 | 4.79298 | 100.48767 | 10081 ft | 282 kts | 337° |
| 2026-04-22 14:09 | 4.81053 | 100.47969 | 9865 ft | 277 kts | 332° |
| 2026-04-22 14:09 | 4.82617 | 100.46827 | 9445 ft | 282 kts | 315° |
| 2026-04-22 14:10 | 4.83928 | 100.45336 | 9069 ft | 287 kts | 309° |
| 2026-04-22 14:10 | 4.85157 | 100.43771 | 8721 ft | 290 kts | 308° |
| 2026-04-22 14:10 | 4.86394 | 100.42163 | 8385 ft | 292 kts | 308° |
| 2026-04-22 14:10 | 4.87629 | 100.40547 | 8064 ft | 291 kts | 308° |
| 2026-04-22 14:11 | 4.88859 | 100.38934 | 7724 ft | 291 kts | 308° |
| 2026-04-22 14:11 | 4.90086 | 100.37324 | 7375 ft | 290 kts | 309° |
| 2026-04-22 14:11 | 4.91310 | 100.35718 | 7040 ft | 289 kts | 309° |
| 2026-04-22 14:11 | 4.92529 | 100.34124 | 6713 ft | 287 kts | 309° |
| 2026-04-22 14:12 | 4.93741 | 100.32530 | 6381 ft | 286 kts | 309° |
| 2026-04-22 14:12 | 4.94944 | 100.30947 | 6019 ft | 285 kts | 309° |
| 2026-04-22 14:12 | 4.96144 | 100.29371 | 5681 ft | 283 kts | 309° |
| 2026-04-22 14:12 | 4.97334 | 100.27806 | 5359 ft | 281 kts | 309° |
| 2026-04-22 14:13 | 4.98515 | 100.26255 | 5022 ft | 279 kts | 309° |
| 2026-04-22 14:13 | 4.99687 | 100.24713 | 4678 ft | 277 kts | 309° |
| 2026-04-22 14:13 | 5.00850 | 100.23186 | 4327 ft | 274 kts | 309° |
| 2026-04-22 14:13 | 5.02005 | 100.21670 | 3968 ft | 272 kts | 308° |
| 2026-04-22 14:14 | 5.03152 | 100.20172 | 3653 ft | 269 kts | 309° |
| 2026-04-22 14:14 | 5.04513 | 100.18890 | 3361 ft | 269 kts | 328° |
| 2026-04-22 14:14 | 5.06111 | 100.17976 | 3110 ft | 267 kts | 333° |
| 2026-04-22 14:14 | 5.07761 | 100.17118 | 2734 ft | 266 kts | 333° |
| 2026-04-22 14:15 | 5.09404 | 100.16268 | 2395 ft | 264 kts | 333° |
| 2026-04-22 14:15 | 5.11037 | 100.15419 | 2104 ft | 264 kts | 332° |
| 2026-04-22 14:15 | 5.12674 | 100.14615 | 2003 ft | 257 kts | 339° |
| 2026-04-22 14:15 | 5.14374 | 100.14511 | 2011 ft | 241 kts | 13° |
| 2026-04-22 14:16 | 5.15863 | 100.15141 | 2006 ft | 227 kts | 34° |
| 2026-04-22 14:16 | 5.17009 | 100.16157 | 2006 ft | 214 kts | 45° |
| 2026-04-22 14:16 | 5.17695 | 100.16843 | 2003 ft | 206 kts | 44° |
| 2026-04-22 14:16 | 5.18715 | 100.17777 | 2031 ft | 189 kts | 41° |
| 2026-04-22 14:17 | 5.19651 | 100.18611 | 2025 ft | 170 kts | 41° |
| 2026-04-22 14:17 | 5.20549 | 100.19418 | 2012 ft | 184 kts | 41° |
| 2026-04-22 14:17 | 5.21524 | 100.20295 | 1806 ft | 188 kts | 41° |
| 2026-04-22 14:17 | 5.22480 | 100.21157 | 1588 ft | 181 kts | 42° |
| 2026-04-22 14:18 | 5.23382 | 100.21972 | 1352 ft | 167 kts | 42° |
| 2026-04-22 14:18 | 5.24208 | 100.22718 | 1133 ft | 154 kts | 43° |
| 2026-04-22 14:18 | 5.24972 | 100.23407 | 947 ft | 141 kts | 42° |
| 2026-04-22 14:18 | 5.25680 | 100.24047 | 791 ft | 135 kts | 42° |
| 2026-04-22 14:19 | 5.26377 | 100.24676 | 633 ft | 135 kts | 41° |
| 2026-04-22 14:19 | 5.27074 | 100.25306 | 444 ft | 134 kts | 41° |
| 2026-04-22 14:19 | 5.27767 | 100.25934 | 290 ft | 134 kts | 42° |
| 2026-04-22 14:19 | 5.28463 | 100.26561 | 108 ft | 134 kts | 41° |
| 2026-04-22 14:20 | 5.29542 | 100.27523 | 27 ft | 33 kts | 41° |
| 2026-04-22 14:20 | 5.29677 | 100.27646 | 27 ft | 31 kts | 43° |
| 2026-04-22 14:20 | 5.29836 | 100.27795 | 29 ft | 31 kts | 43° |
| 2026-04-22 14:21 | 5.30137 | 100.28026 | 29 ft | 6 kts | 345° |
| 2026-04-22 14:21 | 5.30170 | 100.27997 | 28 ft | 7 kts | 315° |
| 2026-04-22 14:22 | 5.30209 | 100.27893 | 27 ft | 8 kts | 245° |
| 2026-04-22 14:22 | 5.30173 | 100.27853 | 27 ft | 9 kts | 226° |
| 2026-04-22 14:22 | 5.30066 | 100.27742 | 27 ft | 13 kts | 226° |
| 2026-04-22 14:23 | 5.29996 | 100.27674 | 27 ft | 15 kts | 223° |
| 2026-04-22 14:23 | 5.29914 | 100.27600 | 26 ft | 17 kts | 221° |
| 2026-04-22 14:23 | 5.29821 | 100.27518 | 26 ft | 19 kts | 220° |
| 2026-04-22 14:23 | 5.29718 | 100.27430 | 26 ft | 20 kts | 222° |
| 2026-04-22 14:24 | 5.29610 | 100.27330 | 31 ft | 22 kts | 222° |
| 2026-04-22 14:24 | 5.29494 | 100.27224 | 26 ft | 23 kts | 222° |
| 2026-04-22 14:24 | 5.29372 | 100.27113 | 26 ft | 24 kts | 223° |
| 2026-04-22 14:24 | 5.29245 | 100.26995 | 27 ft | 25 kts | 222° |
| 2026-04-22 14:25 | 5.29110 | 100.26877 | 27 ft | 26 kts | 221° |
| 2026-04-22 14:25 | 5.28972 | 100.26753 | 27 ft | 27 kts | 222° |
| 2026-04-22 14:25 | 5.28929 | 100.26712 | 27 ft | 5 kts | 234° |
| 2026-04-22 14:25 | 5.28932 | 100.26653 | 27 ft | 10 kts | 303° |
| 2026-04-22 14:26 | 5.28982 | 100.26605 | 26 ft | 10 kts | 322° |
| 2026-04-22 14:26 | 5.29045 | 100.26563 | 26 ft | 10 kts | 326° |
| 2026-04-22 14:26 | 5.29077 | 100.26540 | 26 ft | 0 kts | 324° |
| 2026-04-22 14:26 | 5.29084 | 100.26535 | 26 ft | 1 kts | 324° |
| 2026-04-22 14:27 | 5.29088 | 100.26532 | 26 ft | 0 kts | 324° |